Time;durP1;ratioP1;P1;durP2;ratioP2;P2;SDS_P1;SDS_P2;PMS_P1;PMS_P2;Temp;Humidity;BMP_temperature;BMP_pressure;BME280_temperature;BME280_humidity;BME280_pressure;Samples;Min_cycle;Max_cycle;Signal;HPM_P1;HPM_P2
2023/07/28 00:02:25;;;;;;;8.27;7.47;;;19.40;99.90;;;;;;4993231;28;20229;-64
2023/07/28 00:04:50;;;;;;;7.90;7.50;;;19.40;99.90;;;;;;4990943;28;20183;-63
2023/07/28 00:07:17;;;;;;;8.27;7.77;;;19.40;99.90;;;;;;4992157;28;20187;-63
2023/07/28 00:09:43;;;;;;;7.20;6.80;;;19.40;99.90;;;;;;4992038;28;20179;-64
2023/07/28 00:12:09;;;;;;;7.80;7.40;;;19.40;99.90;;;;;;4991071;28;20501;-64
2023/07/28 00:14:34;;;;;;;7.00;6.60;;;19.40;99.90;;;;;;4992202;28;20279;-64
2023/07/28 00:17:00;;;;;;;7.07;6.70;;;19.40;99.90;;;;;;4992977;28;20599;-64
2023/07/28 00:19:26;;;;;;;7.30;6.80;;;19.40;99.90;;;;;;4992045;28;20187;-64
2023/07/28 00:21:53;;;;;;;7.57;7.07;;;19.40;99.90;;;;;;4991254;28;20191;-63
2023/07/28 00:24:19;;;;;;;7.00;6.60;;;19.50;99.90;;;;;;4992150;28;20481;-63
2023/07/28 00:26:44;;;;;;;7.73;7.13;;;19.50;99.90;;;;;;4993131;28;20775;-64
2023/07/28 00:29:10;;;;;;;7.20;6.80;;;19.40;99.90;;;;;;4991366;28;20472;-63
2023/07/28 00:31:36;;;;;;;7.80;7.00;;;19.40;99.90;;;;;;4993525;28;20206;-64
2023/07/28 00:34:03;;;;;;;7.77;7.37;;;19.40;99.90;;;;;;4991077;28;20196;-64
2023/07/28 00:36:28;;;;;;;7.50;7.10;;;19.40;99.90;;;;;;4992317;28;20227;-64
2023/07/28 00:38:54;;;;;;;7.27;6.90;;;19.40;99.90;;;;;;4991325;28;20496;-64
2023/07/28 00:41:20;;;;;;;6.77;6.47;;;19.40;99.90;;;;;;4991234;28;20927;-64
2023/07/28 00:43:46;;;;;;;6.83;6.53;;;19.40;99.90;;;;;;4991833;28;20433;-63
2023/07/28 00:46:13;;;;;;;7.17;6.77;;;19.30;99.90;;;;;;4991989;28;20191;-64
2023/07/28 00:48:40;;;;;;;6.80;6.50;;;19.30;99.90;;;;;;4991897;28;20470;-63
2023/07/28 00:51:07;;;;;;;6.00;5.80;;;19.40;99.90;;;;;;4992120;28;20449;-64
2023/07/28 00:53:33;;;;;;;6.03;5.73;;;19.40;99.90;;;;;;4991293;28;20458;-64
2023/07/28 00:55:58;;;;;;;6.57;6.17;;;19.40;99.90;;;;;;4991302;28;20462;-63
2023/07/28 00:58:24;;;;;;;6.50;6.03;;;19.40;99.90;;;;;;4993084;28;20175;-63
2023/07/28 01:00:50;;;;;;;5.37;5.17;;;19.40;99.90;;;;;;4989587;28;20263;-63
2023/07/28 01:03:21;;;;;;;6.10;5.80;;;19.40;99.90;;;;;;4991907;28;20179;-64
2023/07/28 01:06:07;;;;;;;6.37;6.07;;;19.50;99.90;;;;;;4991193;28;20187;-64
2023/07/28 01:08:43;;;;;;;6.80;6.50;;;19.40;99.90;;;;;;4991436;28;20477;-64
2023/07/28 01:11:08;;;;;;;5.83;5.63;;;19.40;99.90;;;;;;4990251;28;20815;-64
2023/07/28 01:13:34;;;;;;;5.80;5.60;;;19.40;99.90;;;;;;4991386;28;20426;-64
2023/07/28 01:16:00;;;;;;;5.97;5.57;;;19.50;99.90;;;;;;4992114;28;20237;-63
2023/07/28 01:18:27;;;;;;;6.03;5.83;;;19.50;99.90;;;;;;4992070;28;20184;-63
2023/07/28 01:20:56;;;;;;;6.63;6.17;;;19.50;99.90;;;;;;4990654;28;20426;-63
2023/07/28 01:23:43;;;;;;;5.90;5.70;;;19.50;99.90;;;;;;4985914;28;20423;-64
2023/07/28 01:26:15;;;;;;;6.20;5.90;;;19.50;99.90;;;;;;4990312;28;20512;-65
2023/07/28 01:28:42;;;;;;;5.47;5.17;;;19.50;99.90;;;;;;4990766;28;20467;-64
2023/07/28 01:31:08;;;;;;;5.07;4.87;;;19.50;99.90;;;;;;4991816;28;20411;-63
2023/07/28 01:33:34;;;;;;;5.43;5.13;;;19.40;99.90;;;;;;4995793;28;20800;-63
2023/07/28 01:36:00;;;;;;;5.43;5.23;;;19.40;99.90;;;;;;4993888;28;20462;-63
2023/07/28 01:38:27;;;;;;;5.83;5.53;;;19.50;99.90;;;;;;4995339;28;20194;-63
2023/07/28 01:40:53;;;;;;;5.60;5.40;;;19.50;99.90;;;;;;4994793;28;20930;-63
2023/07/28 01:43:19;;;;;;;5.63;5.43;;;19.50;99.90;;;;;;4995943;28;20426;-64
2023/07/28 01:45:45;;;;;;;5.57;5.37;;;19.50;99.90;;;;;;4994597;28;20179;-63
2023/07/28 01:48:10;;;;;;;5.03;4.83;;;19.50;99.90;;;;;;4994617;28;20898;-64
2023/07/28 01:50:37;;;;;;;5.33;5.13;;;19.60;99.90;;;;;;4993788;28;20192;-63
2023/07/28 01:53:04;;;;;;;5.40;5.13;;;19.60;99.90;;;;;;4993998;28;20186;-64
2023/07/28 01:55:30;;;;;;;5.40;5.20;;;19.60;99.90;;;;;;4994619;28;20839;-63
2023/07/28 01:57:58;;;;;;;5.17;4.97;;;19.60;99.90;;;;;;4995028;28;20522;-63
2023/07/28 02:00:24;;;;;;;5.07;4.90;;;19.60;99.90;;;;;;4994531;28;20213;-63
2023/07/28 02:02:50;;;;;;;5.53;5.33;;;19.60;99.90;;;;;;4995544;28;20424;-63
2023/07/28 02:05:19;;;;;;;5.33;5.03;;;19.60;99.90;;;;;;4994546;28;20450;-63
2023/07/28 02:07:45;;;;;;;5.70;5.33;;;19.60;99.90;;;;;;4994673;28;20577;-63
2023/07/28 02:10:10;;;;;;;5.20;5.00;;;19.60;99.90;;;;;;4993650;28;20494;-64
2023/07/28 02:12:37;;;;;;;4.73;4.43;;;19.50;99.90;;;;;;4995391;28;20195;-63
2023/07/28 02:15:04;;;;;;;5.00;4.80;;;19.60;99.90;;;;;;4993300;28;20227;-63
2023/07/28 02:17:30;;;;;;;5.00;4.80;;;19.60;99.90;;;;;;4993717;28;20816;-64
2023/07/28 02:19:56;;;;;;;5.00;4.80;;;19.60;99.90;;;;;;4994547;28;20425;-63
2023/07/28 02:22:21;;;;;;;4.67;4.57;;;19.60;99.90;;;;;;4994224;28;20674;-64
2023/07/28 02:24:47;;;;;;;4.93;4.73;;;19.60;99.90;;;;;;4994308;28;20187;-63
2023/07/28 02:27:13;;;;;;;4.83;4.73;;;19.60;99.90;;;;;;4993875;28;20188;-63
2023/07/28 02:29:39;;;;;;;5.27;5.07;;;19.60;99.90;;;;;;4993693;28;20222;-64
2023/07/28 02:32:05;;;;;;;4.77;4.57;;;19.70;99.90;;;;;;4992880;28;20180;-64
2023/07/28 02:34:31;;;;;;;4.83;4.63;;;19.70;99.90;;;;;;4992842;28;20544;-63
2023/07/28 02:36:57;;;;;;;5.30;5.10;;;19.70;99.90;;;;;;4993734;28;20469;-64
2023/07/28 02:39:23;;;;;;;4.60;4.40;;;19.70;99.90;;;;;;4992783;28;20624;-63
2023/07/28 02:41:48;;;;;;;4.43;4.30;;;19.70;99.90;;;;;;4994028;28;20423;-63
2023/07/28 02:44:15;;;;;;;4.30;4.20;;;19.70;99.90;;;;;;4992226;28;20175;-63
2023/07/28 02:46:41;;;;;;;4.10;4.00;;;19.70;99.90;;;;;;4993566;28;20460;-63
2023/07/28 02:49:07;;;;;;;5.13;4.93;;;19.70;99.90;;;;;;4992145;28;20207;-63
2023/07/28 02:51:34;;;;;;;5.13;4.80;;;19.70;99.90;;;;;;4993504;28;20199;-64
2023/07/28 02:54:00;;;;;;;5.67;5.27;;;19.70;99.90;;;;;;4993302;28;20176;-63
2023/07/28 02:56:26;;;;;;;5.00;4.60;;;19.70;99.90;;;;;;4993507;28;20435;-63
2023/07/28 02:58:52;;;;;;;4.80;4.60;;;19.70;99.90;;;;;;4993080;28;20430;-63
2023/07/28 03:01:18;;;;;;;4.70;4.50;;;19.70;99.90;;;;;;4992745;28;20426;-63
2023/07/28 03:03:43;;;;;;;4.87;4.70;;;19.80;99.90;;;;;;4993316;28;20430;-63
2023/07/28 03:06:09;;;;;;;5.30;5.00;;;19.80;99.90;;;;;;4994056;28;20235;-63
2023/07/28 03:08:35;;;;;;;4.90;4.60;;;19.80;99.90;;;;;;4993323;28;20513;-63
2023/07/28 03:11:02;;;;;;;5.70;5.50;;;19.80;99.90;;;;;;4992346;28;20184;-63
2023/07/28 03:13:30;;;;;;;5.73;5.53;;;19.70;99.90;;;;;;4993160;28;20234;-63
2023/07/28 03:15:56;;;;;;;5.37;5.23;;;19.70;99.90;;;;;;4993484;28;20919;-61
2023/07/28 03:18:22;;;;;;;5.70;5.30;;;19.70;99.90;;;;;;4992370;28;20434;-63
2023/07/28 03:20:48;;;;;;;5.50;5.30;;;19.70;99.90;;;;;;4992200;28;20195;-63
2023/07/28 03:23:14;;;;;;;5.50;5.30;;;19.70;99.90;;;;;;4993427;28;20271;-63
2023/07/28 03:25:40;;;;;;;5.80;5.60;;;19.70;99.90;;;;;;4993194;28;20514;-63
2023/07/28 03:28:05;;;;;;;6.10;5.80;;;19.70;99.90;;;;;;4992553;28;20254;-63
2023/07/28 03:30:31;;;;;;;5.80;5.60;;;19.70;99.90;;;;;;4993709;28;20187;-63
2023/07/28 03:32:57;;;;;;;5.90;5.50;;;19.80;99.90;;;;;;4992342;28;20272;-61
2023/07/28 03:35:23;;;;;;;6.00;5.60;;;19.80;99.90;;;;;;4992570;28;20703;-63
2023/07/28 03:37:48;;;;;;;5.73;5.50;;;19.80;99.90;;;;;;4993037;28;20215;-63
2023/07/28 03:40:14;;;;;;;3.60;3.50;;;19.80;99.90;;;;;;4993234;28;20266;-63
2023/07/28 03:42:40;;;;;;;8.50;8.30;;;19.80;99.90;;;;;;4992614;28;20183;-64
2023/07/28 03:45:07;;;;;;;4.10;3.80;;;19.80;99.90;;;;;;4992820;28;20266;-63
2023/07/28 03:47:32;;;;;;;5.13;4.93;;;19.80;99.90;;;;;;4992499;28;20263;-64
2023/07/28 03:49:58;;;;;;;4.20;4.00;;;19.80;99.90;;;;;;4991961;28;20529;-60
2023/07/28 03:52:24;;;;;;;4.10;4.00;;;19.80;99.90;;;;;;4992317;28;20210;-63
2023/07/28 03:54:49;;;;;;;4.10;4.00;;;19.90;99.90;;;;;;4993344;28;20187;-64
2023/07/28 03:57:15;;;;;;;3.40;3.20;;;19.80;99.90;;;;;;4992087;28;20643;-64
2023/07/28 03:59:41;;;;;;;3.00;2.90;;;19.80;99.90;;;;;;4992525;28;20192;-64
2023/07/28 04:02:07;;;;;;;4.73;4.40;;;19.80;99.90;;;;;;4992850;28;20194;-64
2023/07/28 04:04:32;;;;;;;3.80;3.70;;;19.80;99.90;;;;;;4992095;28;20194;-64
2023/07/28 04:06:58;;;;;;;3.00;2.90;;;19.80;99.90;;;;;;4992046;28;20183;-64
2023/07/28 04:09:24;;;;;;;5.37;5.27;;;19.80;99.90;;;;;;4993198;28;20338;-64
2023/07/28 04:11:50;;;;;;;2.70;2.60;;;19.90;99.90;;;;;;4990958;28;20518;-64
2023/07/28 04:14:16;;;;;;;5.57;5.10;;;19.90;99.90;;;;;;4991408;28;20430;-64
2023/07/28 04:16:41;;;;;;;2.57;2.47;;;19.90;99.90;;;;;;4992357;28;20184;-63
2023/07/28 04:19:07;;;;;;;4.80;4.60;;;19.90;99.90;;;;;;4991923;28;20195;-63
2023/07/28 04:21:33;;;;;;;4.93;4.73;;;19.90;99.90;;;;;;4992394;28;20465;-62
2023/07/28 04:23:59;;;;;;;3.53;3.43;;;20.00;99.90;;;;;;4976696;28;20209;-64
2023/07/28 04:26:25;;;;;;;3.20;3.03;;;20.00;99.90;;;;;;4979743;28;20666;-63
2023/07/28 04:28:51;;;;;;;2.87;2.67;;;20.00;99.90;;;;;;4993136;28;20458;-61
2023/07/28 04:31:17;;;;;;;4.00;3.90;;;20.00;99.90;;;;;;4992255;28;20223;-62
2023/07/28 04:33:43;;;;;;;3.80;3.60;;;20.00;99.90;;;;;;4991479;28;20422;-62
2023/07/28 04:36:09;;;;;;;2.57;2.47;;;20.00;99.90;;;;;;4991428;28;20458;-64
2023/07/28 04:38:35;;;;;;;6.83;6.63;;;20.00;99.90;;;;;;4993210;28;20410;-64
2023/07/28 04:41:01;;;;;;;6.30;6.00;;;20.00;99.90;;;;;;4991718;28;20427;-60
2023/07/28 04:43:27;;;;;;;3.40;3.20;;;20.00;99.90;;;;;;4992120;28;20242;-64
2023/07/28 04:45:53;;;;;;;5.80;5.60;;;20.00;99.90;;;;;;4992002;28;20203;-64
2023/07/28 04:48:19;;;;;;;4.40;4.30;;;20.00;99.90;;;;;;4991653;28;20493;-64
2023/07/28 04:50:45;;;;;;;2.87;2.77;;;20.10;99.90;;;;;;4993006;28;20191;-64
2023/07/28 04:53:11;;;;;;;3.03;2.87;;;20.00;99.90;;;;;;4991178;28;20449;-64
2023/07/28 04:55:36;;;;;;;3.90;3.70;;;20.10;99.90;;;;;;4991270;28;20517;-64
2023/07/28 04:58:02;;;;;;;3.90;3.70;;;20.10;99.90;;;;;;4992420;28;20267;-60
2023/07/28 05:00:28;;;;;;;4.30;4.10;;;20.10;99.90;;;;;;4991379;28;20175;-64
2023/07/28 05:02:54;;;;;;;3.97;3.83;;;20.10;99.90;;;;;;4990183;28;20971;-64
2023/07/28 05:05:20;;;;;;;4.73;4.43;;;20.20;99.90;;;;;;4991345;28;20176;-61
2023/07/28 05:07:46;;;;;;;4.10;3.90;;;20.20;99.90;;;;;;4995210;28;20290;-64
2023/07/28 05:10:11;;;;;;;3.77;3.67;;;20.20;99.90;;;;;;4993896;28;20190;-64
2023/07/28 05:12:37;;;;;;;4.63;4.33;;;20.20;99.90;;;;;;4994734;28;20419;-65
2023/07/28 05:15:05;;;;;;;3.93;3.73;;;20.30;99.90;;;;;;4994805;28;20210;-61
2023/07/28 05:17:31;;;;;;;5.33;5.13;;;20.30;99.90;;;;;;4995228;28;20196;-65
2023/07/28 05:19:57;;;;;;;3.90;3.70;;;20.30;99.90;;;;;;4994797;28;20431;-65
2023/07/28 05:22:22;;;;;;;5.90;5.70;;;20.30;99.90;;;;;;4994301;28;20354;-64
2023/07/28 05:24:48;;;;;;;3.80;3.43;;;20.30;99.90;;;;;;4996151;28;20179;-64
2023/07/28 05:27:14;;;;;;;3.30;3.20;;;20.30;99.90;;;;;;4993488;28;20179;-64
2023/07/28 05:29:40;;;;;;;8.23;7.53;;;20.40;99.90;;;;;;4994722;28;20242;-64
2023/07/28 05:32:06;;;;;;;8.50;7.90;;;20.40;99.90;;;;;;4995092;28;20423;-61
2023/07/28 05:34:32;;;;;;;5.97;5.73;;;20.40;99.90;;;;;;4995293;28;20184;-64
2023/07/28 05:36:58;;;;;;;5.70;5.50;;;20.40;99.90;;;;;;4994203;28;20554;-64
2023/07/28 05:39:24;;;;;;;4.53;4.33;;;20.50;99.90;;;;;;4993692;28;20242;-64
2023/07/28 05:41:50;;;;;;;5.33;5.03;;;20.50;99.90;;;;;;4995724;28;20426;-65
2023/07/28 05:44:15;;;;;;;11.43;10.53;;;20.50;99.90;;;;;;4993271;28;20194;-61
2023/07/28 05:46:41;;;;;;;5.10;4.90;;;20.50;99.90;;;;;;4993551;28;20198;-61
2023/07/28 05:49:07;;;;;;;6.63;6.33;;;20.50;99.90;;;;;;4994794;28;20203;-62
2023/07/28 05:51:33;;;;;;;5.97;5.77;;;20.50;99.90;;;;;;4993768;28;20647;-62
2023/07/28 05:53:58;;;;;;;5.60;5.40;;;20.50;99.90;;;;;;4994989;28;20507;-62
2023/07/28 05:56:24;;;;;;;4.00;3.90;;;20.60;99.90;;;;;;4995384;28;20176;-62
2023/07/28 05:58:50;;;;;;;4.07;3.97;;;20.60;99.90;;;;;;4994445;28;20191;-62
2023/07/28 06:01:17;;;;;;;6.77;5.77;;;20.60;99.90;;;;;;4993872;28;20242;-62
2023/07/28 06:03:42;;;;;;;3.60;3.40;;;20.60;99.90;;;;;;4995872;28;20453;-62
2023/07/28 06:06:08;;;;;;;6.40;6.20;;;20.60;99.90;;;;;;4994215;28;20483;-62
2023/07/28 06:08:35;;;;;;;5.37;5.17;;;20.70;99.90;;;;;;4994651;28;20208;-62
2023/07/28 06:11:04;;;;;;;5.20;5.00;;;20.70;99.90;;;;;;4995790;28;20263;-62
2023/07/28 06:13:30;;;;;;;4.13;4.03;;;20.70;99.90;;;;;;4993617;28;20453;-62
2023/07/28 06:15:58;;;;;;;3.53;3.43;;;20.70;99.90;;;;;;4994225;28;20434;-62
2023/07/28 06:18:24;;;;;;;3.20;3.00;;;20.70;99.90;;;;;;4990814;28;20446;-62
2023/07/28 06:20:49;;;;;;;6.90;6.40;;;20.70;99.90;;;;;;4993690;28;20438;-67
2023/07/28 06:23:15;;;;;;;10.00;9.30;;;20.70;99.90;;;;;;4993271;28;20431;-67
2023/07/28 06:25:44;;;;;;;8.63;8.20;;;20.70;99.90;;;;;;4993988;28;20209;-65
2023/07/28 06:28:10;;;;;;;3.07;2.87;;;20.70;99.90;;;;;;4990280;28;20687;-68
2023/07/28 06:30:37;;;;;;;17.27;15.47;;;20.70;99.90;;;;;;4994363;28;20439;-68
2023/07/28 06:33:06;;;;;;;13.47;12.00;;;20.80;99.90;;;;;;4994376;28;20852;-68
2023/07/28 06:35:32;;;;;;;7.47;4.40;;;20.80;99.90;;;;;;4994451;28;20481;-68
2023/07/28 06:37:59;;;;;;;4.23;4.13;;;20.90;99.90;;;;;;4994151;28;20796;-68
2023/07/28 06:40:24;;;;;;;2.80;2.60;;;20.90;99.90;;;;;;4993694;28;20510;-64
2023/07/28 06:42:51;;;;;;;5.57;5.37;;;20.90;99.90;;;;;;4993596;28;20514;-65
2023/07/28 06:45:16;;;;;;;6.30;6.10;;;20.90;99.90;;;;;;4993118;28;20180;-63
2023/07/28 06:47:42;;;;;;;2.80;2.70;;;20.90;99.90;;;;;;4993464;28;20477;-64
2023/07/28 06:50:10;;;;;;;3.23;3.20;;;20.80;99.90;;;;;;4994640;28;20180;-62
2023/07/28 06:52:36;;;;;;;2.67;2.63;;;20.90;99.90;;;;;;4992591;28;20510;-64
2023/07/28 06:55:02;;;;;;;4.70;4.50;;;20.80;99.90;;;;;;4991680;28;20582;-64
2023/07/28 06:57:28;;;;;;;4.00;3.90;;;20.90;99.90;;;;;;4994184;28;20287;-65
2023/07/28 06:59:54;;;;;;;5.03;4.93;;;20.90;99.90;;;;;;4993727;28;20994;-64
2023/07/28 07:02:19;;;;;;;3.43;3.33;;;20.80;99.90;;;;;;4993687;28;20171;-64
2023/07/28 07:04:45;;;;;;;5.10;4.90;;;20.80;99.90;;;;;;4993599;28;20233;-64
2023/07/28 07:07:11;;;;;;;5.20;4.90;;;20.80;99.90;;;;;;4991611;28;20195;-63
2023/07/28 07:09:37;;;;;;;4.20;4.00;;;20.80;99.90;;;;;;4992905;28;20462;-61
2023/07/28 07:12:03;;;;;;;4.73;4.53;;;20.70;99.90;;;;;;4993270;28;20186;-62
2023/07/28 07:14:29;;;;;;;3.90;3.80;;;20.70;99.90;;;;;;4992773;28;20172;-62
2023/07/28 07:16:55;;;;;;;4.57;4.37;;;20.70;99.90;;;;;;4994366;28;20423;-63
2023/07/28 07:19:20;;;;;;;5.03;4.83;;;20.70;99.90;;;;;;4990443;28;20190;-62
2023/07/28 07:21:47;;;;;;;6.30;6.10;;;20.70;99.90;;;;;;4994325;28;20181;-62
2023/07/28 07:24:13;;;;;;;4.80;4.60;;;20.70;99.90;;;;;;4992797;28;20544;-66
2023/07/28 07:26:42;;;;;;;4.63;4.43;;;20.70;99.90;;;;;;4993146;28;20430;-61
2023/07/28 07:29:09;;;;;;;4.00;3.90;;;20.70;99.90;;;;;;4991556;28;20466;-65
2023/07/28 07:31:35;;;;;;;736.80;529.47;;;20.70;99.90;;;;;;4992773;28;20481;-61
2023/07/28 07:34:01;;;;;;;168.07;146.97;;;20.70;99.90;;;;;;4992580;28;20439;-61
2023/07/28 07:36:26;;;;;;;10.97;9.90;;;20.70;99.90;;;;;;4990729;28;20231;-61
2023/07/28 07:38:52;;;;;;;5.30;5.10;;;20.70;99.90;;;;;;4994203;28;20176;-62
2023/07/28 07:41:21;;;;;;;5.53;5.23;;;20.70;99.90;;;;;;4992527;28;20195;-61
2023/07/28 07:43:47;;;;;;;54.90;48.03;;;20.80;99.90;;;;;;4992780;28;20192;-61
2023/07/28 07:46:14;;;;;;;429.27;314.30;;;20.80;99.90;;;;;;4992490;28;20489;-61
2023/07/28 07:48:40;;;;;;;19.07;17.10;;;20.90;99.90;;;;;;4992537;28;20478;-63
2023/07/28 07:51:07;;;;;;;7.00;6.50;;;20.90;99.90;;;;;;4992025;28;20438;-62
2023/07/28 07:53:33;;;;;;;4.80;4.50;;;20.90;99.90;;;;;;4991865;28;20266;-63
2023/07/28 07:55:59;;;;;;;4.90;4.63;;;21.00;99.90;;;;;;4992710;28;20506;-63
2023/07/28 07:58:25;;;;;;;6.87;6.47;;;21.00;99.90;;;;;;4992211;28;20187;-63
2023/07/28 08:00:50;;;;;;;6.93;6.63;;;20.90;99.90;;;;;;4992782;28;20582;-62
2023/07/28 08:03:16;;;;;;;8.10;7.70;;;20.90;99.90;;;;;;4991941;28;20180;-63
2023/07/28 08:05:42;;;;;;;6.77;6.37;;;20.90;99.90;;;;;;4993702;28;20234;-62
2023/07/28 08:08:08;;;;;;;7.40;6.93;;;21.00;99.90;;;;;;4992676;28;20314;-62
2023/07/28 08:10:34;;;;;;;7.10;6.60;;;21.00;99.90;;;;;;4992362;28;20938;-62
2023/07/28 08:13:00;;;;;;;6.80;6.50;;;21.00;99.90;;;;;;4991971;28;20411;-64
2023/07/28 08:15:26;;;;;;;6.50;6.10;;;21.10;99.90;;;;;;4990379;28;20187;-62
2023/07/28 08:17:52;;;;;;;6.67;6.37;;;21.10;99.90;;;;;;4987344;28;20200;-61
2023/07/28 08:20:18;;;;;;;5.90;5.60;;;21.10;99.90;;;;;;4991622;28;20407;-61
2023/07/28 08:22:44;;;;;;;5.67;5.33;;;21.10;99.90;;;;;;4992193;28;20426;-61
2023/07/28 08:25:09;;;;;;;5.60;5.40;;;21.20;99.90;;;;;;4992314;28;20513;-61
2023/07/28 08:27:35;;;;;;;7.70;7.40;;;21.20;99.90;;;;;;4991527;28;20178;-61
2023/07/28 08:30:03;;;;;;;6.60;6.30;;;21.30;99.90;;;;;;4992611;28;20184;-61
2023/07/28 08:32:28;;;;;;;4.67;4.47;;;21.30;99.90;;;;;;4991442;28;20640;-61
2023/07/28 08:34:54;;;;;;;6.00;5.80;;;21.30;99.90;;;;;;4992971;28;20470;-62
2023/07/28 08:37:20;;;;;;;4.77;4.57;;;21.30;99.90;;;;;;4991857;28;20179;-61
2023/07/28 08:39:46;;;;;;;5.10;4.70;;;21.30;99.90;;;;;;4992385;28;20430;-61
2023/07/28 08:42:12;;;;;;;6.27;6.00;;;21.30;99.90;;;;;;4996607;28;20624;-63
2023/07/28 08:44:37;;;;;;;4.27;4.10;;;21.30;99.90;;;;;;4995748;28;20857;-60
2023/07/28 08:47:04;;;;;;;10.30;9.57;;;21.30;99.90;;;;;;4995970;28;20266;-61
2023/07/28 08:49:36;;;;;;;12.60;11.50;;;21.40;99.90;;;;;;4995180;28;20207;-61
2023/07/28 08:52:05;;;;;;;26.07;23.47;;;21.40;99.90;;;;;;4989293;28;20805;-61
2023/07/28 08:54:31;;;;;;;72.00;58.00;;;21.40;99.90;;;;;;4993911;28;20768;-61
2023/07/28 08:57:00;;;;;;;65.43;58.73;;;21.40;99.90;;;;;;4992504;28;20477;-66
2023/07/28 08:59:28;;;;;;;8.23;7.73;;;21.50;99.90;;;;;;4992270;28;20275;-67
2023/07/28 09:01:55;;;;;;;5.63;5.43;;;21.50;99.90;;;;;;4991350;28;20496;-67
2023/07/28 09:04:22;;;;;;;4.23;4.13;;;21.50;99.90;;;;;;4995434;28;20431;-66
2023/07/28 09:06:49;;;;;;;4.67;4.47;;;21.50;99.90;;;;;;4990599;28;20426;-65
2023/07/28 09:09:16;;;;;;;4.60;4.40;;;21.50;99.90;;;;;;4995274;28;20570;-67
2023/07/28 09:11:53;;;;;;;6.10;5.90;;;21.50;99.90;;;;;;4989515;28;20820;-67
2023/07/28 09:14:20;;;;;;;3.80;3.60;;;21.60;99.90;;;;;;4990818;28;20435;-65
2023/07/28 09:16:47;;;;;;;2.80;2.70;;;21.60;99.90;;;;;;4994574;28;20946;-66
2023/07/28 09:19:13;;;;;;;4.40;4.27;;;21.60;99.90;;;;;;4993393;28;20430;-67
2023/07/28 09:21:41;;;;;;;5.60;5.30;;;21.70;99.90;;;;;;4988263;28;20422;-67
2023/07/28 09:24:10;;;;;;;5.63;5.40;;;21.80;99.90;;;;;;4986743;28;20434;-66
2023/07/28 09:26:44;;;;;;;4.20;4.00;;;21.80;99.90;;;;;;4994355;28;20426;-67
2023/07/28 09:29:20;;;;;;;3.70;3.50;;;21.80;99.90;;;;;;4995240;28;20858;-67
2023/07/28 09:31:50;;;;;;;4.50;4.40;;;21.80;99.90;;;;;;4995914;28;20765;-65
2023/07/28 09:34:27;;;;;;;6.30;6.00;;;21.80;99.90;;;;;;4988115;28;20777;-66
2023/07/28 09:36:57;;;;;;;3.97;3.70;;;21.90;99.90;;;;;;4991875;28;20545;-67
2023/07/28 09:39:23;;;;;;;5.80;5.50;;;21.90;99.90;;;;;;4991540;28;20439;-66
2023/07/28 09:41:50;;;;;;;6.20;5.07;;;21.90;99.90;;;;;;4994735;28;20856;-66
2023/07/28 09:44:16;;;;;;;5.70;5.50;;;22.00;99.90;;;;;;4994908;28;20433;-75
2023/07/28 09:47:01;;;;;;;17.10;15.50;;;22.00;99.90;;;;;;4991481;28;20518;-76
2023/07/28 09:49:36;;;;;;;26.93;24.33;;;22.10;99.90;;;;;;4993232;28;20537;-76
2023/07/28 09:52:08;;;;;;;4.30;4.10;;;22.10;99.90;;;;;;4992738;28;20911;-66
2023/07/28 09:54:42;;;;;;;7.00;6.50;;;22.10;99.90;;;;;;4989887;28;20843;-67
2023/07/28 09:57:13;;;;;;;5.77;5.47;;;22.20;99.90;;;;;;4994430;28;20839;-66
2023/07/28 09:59:41;;;;;;;7.53;7.23;;;22.20;99.90;;;;;;4995315;28;20866;-67
2023/07/28 10:02:07;;;;;;;5.17;4.97;;;22.10;99.90;;;;;;4994789;28;20431;-66
2023/07/28 10:04:33;;;;;;;4.20;4.00;;;22.10;99.90;;;;;;4992936;28;20961;-66
2023/07/28 10:07:00;;;;;;;6.47;6.07;;;22.10;99.90;;;;;;4995906;28;20418;-67
2023/07/28 10:09:28;;;;;;;6.47;6.07;;;22.20;99.90;;;;;;4992816;28;20470;-70
2023/07/28 10:11:55;;;;;;;5.47;5.20;;;22.20;99.90;;;;;;4993550;28;20441;-69
2023/07/28 10:14:30;;;;;;;4.90;4.70;;;22.10;99.90;;;;;;4994244;28;20433;-62
2023/07/28 10:16:57;;;;;;;5.20;5.00;;;22.10;99.90;;;;;;4995163;28;20480;-70
2023/07/28 10:19:26;;;;;;;7.10;6.70;;;22.00;99.90;;;;;;4990623;28;20451;-69
2023/07/28 10:22:02;;;;;;;6.50;6.20;;;22.10;99.90;;;;;;4991451;28;20426;-69
2023/07/28 10:24:56;;;;;;;9.40;8.80;;;22.00;99.90;;;;;;4993543;28;20418;-69
2023/07/28 10:27:34;;;;;;;7.17;6.77;;;22.10;99.90;;;;;;4992698;28;20497;-68
2023/07/28 10:30:05;;;;;;;7.10;6.80;;;22.00;99.90;;;;;;4994041;28;20423;-69
2023/07/28 10:32:45;;;;;;;6.90;6.50;;;22.00;99.90;;;;;;4988359;28;20419;-69
2023/07/28 10:35:14;;;;;;;6.17;5.80;;;22.10;99.90;;;;;;4991180;28;20450;-69
2023/07/28 10:37:45;;;;;;;9.37;8.77;;;22.20;99.90;;;;;;4993083;28;20965;-69
2023/07/28 10:40:26;;;;;;;8.40;8.00;;;22.20;99.90;;;;;;4993909;28;20441;-70
2023/07/28 10:42:53;;;;;;;7.50;7.00;;;22.20;99.90;;;;;;4993708;28;20772;-69
2023/07/28 10:45:20;;;;;;;6.50;6.20;;;22.20;99.90;;;;;;4992826;28;20423;-70
2023/07/28 10:47:47;;;;;;;6.63;6.33;;;22.20;99.90;;;;;;4993279;28;20434;-69
2023/07/28 10:50:14;;;;;;;6.77;6.37;;;22.20;99.90;;;;;;4992711;28;20441;-70
2023/07/28 10:52:43;;;;;;;6.73;6.33;;;22.20;99.90;;;;;;4993435;28;20431;-69
2023/07/28 10:55:16;;;;;;;9.23;8.60;;;22.20;99.90;;;;;;4993796;28;20403;-69
2023/07/28 10:57:44;;;;;;;7.63;7.13;;;22.20;99.90;;;;;;4994188;28;20427;-69
2023/07/28 11:00:14;;;;;;;7.83;7.33;;;22.20;99.90;;;;;;4993603;28;20799;-69
2023/07/28 11:02:48;;;;;;;7.70;7.20;;;22.30;99.90;;;;;;4993078;28;20496;-70
2023/07/28 11:05:24;;;;;;;7.53;7.00;;;22.20;99.90;;;;;;4992619;28;20398;-69
2023/07/28 11:07:54;;;;;;;6.70;6.30;;;22.20;99.90;;;;;;4994586;28;20399;-69
2023/07/28 11:10:20;;;;;;;8.60;8.20;;;22.20;99.90;;;;;;4993822;28;20438;-69
2023/07/28 11:12:48;;;;;;;8.33;7.90;;;22.30;99.90;;;;;;4992937;28;20485;-69
2023/07/28 11:15:16;;;;;;;7.50;7.10;;;22.40;99.90;;;;;;4994056;28;20903;-69
2023/07/28 11:17:49;;;;;;;6.57;6.03;;;22.40;99.90;;;;;;4993493;28;20442;-69
2023/07/28 11:20:19;;;;;;;7.93;7.23;;;22.50;99.90;;;;;;4993391;28;20429;-71
2023/07/28 11:22:47;;;;;;;6.87;6.47;;;22.60;99.90;;;;;;4991439;28;20439;-69
2023/07/28 11:25:13;;;;;;;6.53;6.17;;;22.50;99.90;;;;;;4993181;28;20763;-70
2023/07/28 11:27:40;;;;;;;7.20;6.70;;;22.60;99.90;;;;;;4992531;28;20473;-70
2023/07/28 11:30:12;;;;;;;7.00;6.60;;;22.70;99.90;;;;;;4993207;28;20458;-70
2023/07/28 11:32:38;;;;;;;6.63;6.17;;;22.90;99.90;;;;;;4992323;28;20425;-70
2023/07/28 11:35:09;;;;;;;7.30;6.80;;;23.10;99.90;;;;;;4992529;28;20467;-70
2023/07/28 11:37:36;;;;;;;5.90;5.60;;;23.30;99.90;;;;;;4992825;28;20513;-70
2023/07/28 11:40:06;;;;;;;6.37;5.97;;;23.40;99.90;;;;;;4993261;28;20486;-70
2023/07/28 11:42:40;;;;;;;6.20;5.80;;;23.50;99.90;;;;;;4991553;28;20455;-69
2023/07/28 11:45:07;;;;;;;5.90;5.60;;;23.60;99.90;;;;;;4991717;28;20440;-70
2023/07/28 11:47:33;;;;;;;5.53;5.27;;;23.60;99.90;;;;;;4992245;28;20434;-69
2023/07/28 11:50:00;;;;;;;4.80;4.60;;;23.60;99.90;;;;;;4992708;28;20509;-70
2023/07/28 11:52:34;;;;;;;5.33;5.10;;;23.70;99.90;;;;;;4993802;28;20180;-70
2023/07/28 11:55:02;;;;;;;5.70;5.40;;;23.80;99.90;;;;;;4993019;28;20517;-70
2023/07/28 11:57:30;;;;;;;5.10;4.83;;;23.80;99.90;;;;;;4992178;28;20427;-68
2023/07/28 11:59:57;;;;;;;4.77;4.57;;;23.70;99.90;;;;;;4993517;28;20426;-69
2023/07/28 12:02:31;;;;;;;4.47;4.07;;;23.70;99.90;;;;;;4992525;28;20489;-70
2023/07/28 12:04:57;;;;;;;4.00;3.80;;;23.60;99.90;;;;;;4992267;28;20431;-69
2023/07/28 12:07:33;;;;;;;4.27;4.07;;;23.60;99.90;;;;;;4991104;28;20426;-70
2023/07/28 12:10:06;;;;;;;6.53;6.13;;;23.60;99.90;;;;;;4993380;28;20958;-69
2023/07/28 12:12:44;;;;;;;7.00;6.60;;;23.50;99.90;;;;;;4990811;28;20488;-70
2023/07/28 12:15:20;;;;;;;4.40;4.20;;;23.60;99.90;;;;;;4991785;28;20712;-65
2023/07/28 12:18:03;;;;;;;3.70;3.60;;;23.60;99.90;;;;;;4988307;28;20434;-67
2023/07/28 12:20:37;;;;;;;5.13;4.90;;;23.60;99.90;;;;;;4986744;28;20961;-62
2023/07/28 12:23:03;;;;;;;5.17;4.97;;;23.70;99.90;;;;;;4988622;28;20421;-67
2023/07/28 12:25:30;;;;;;;5.60;5.40;;;23.60;99.90;;;;;;4987153;28;20825;-61
2023/07/28 12:27:55;;;;;;;6.63;6.23;;;23.50;99.90;;;;;;4987281;28;20447;-66
2023/07/28 12:30:21;;;;;;;276.90;190.20;;;23.40;99.90;;;;;;4988533;28;20482;-66
2023/07/28 12:32:49;;;;;;;18.17;16.47;;;23.60;99.90;;;;;;4989026;28;20187;-66
2023/07/28 12:35:15;;;;;;;5.00;4.80;;;23.80;99.90;;;;;;4989428;28;20467;-67
2023/07/28 12:37:41;;;;;;;4.30;4.20;;;24.00;99.90;;;;;;4989408;28;20206;-66
2023/07/28 12:40:08;;;;;;;4.50;4.30;;;24.10;99.90;;;;;;4987753;28;20184;-67
2023/07/28 12:42:34;;;;;;;4.13;3.93;;;24.00;99.90;;;;;;4990597;28;20431;-65
2023/07/28 12:45:00;;;;;;;4.43;4.30;;;24.10;99.90;;;;;;4990611;28;20411;-68
2023/07/28 12:47:26;;;;;;;4.30;4.10;;;24.30;99.90;;;;;;4991855;28;20430;-68